Brent, United Kingdom
Current Conditions -  °F | °C
As of 6:50 PM on Thursday 27 Nov 2014 (Local Time) from EGWU Reporting Station
Broken Clouds Broken Clouds  
Wind Chill: 10°   Ceiling: 3000
Heat Index: 10°   Visibility: 6mi
Dew Point:   Wind: 6mph
Humidity: 94%   Direction: 100°E
Pressure: 29.59"   Gusts: NA
Location:  51.55°N, 0.3°W
Report Text: EGWU 271850Z 10005KT 9999 FEW012 BKN030 BKN060 10/09 Q1002 BLU TEMPO SCT012 GRN
Loading
Personal Weather Stations






























Interactive Weather Map New forecast layout! Learn more

10-Day Weather Forecast

Advertisements
Track Severe Weather on mobile